KBWI/BWI METAR and TAF weather

Enter ICAO airport designator
Station Type Date Time Source
KBWI METAR 2020/07/02 17:54 UTC NOAA

KBWI 021754Z VRB05KT 10SM SCT050 SCT075 32/17 A2989 RMK AO2 SLP119 T03220167 10322 20244 58003


Station Type Date Time Source
KBWI Decoded METAR 2020/07/02 17:54 UTC NOAA

BALTIMORE-WASHINGTON INTERNATIONAL , MD, United States (KBWI) 39-10N 076-41W 59M
Jul 02, 2020 - 01:54 PM EDT / 2020.07.02 1754 UTC
Wind: Variable at 6 MPH (5 KT):0
Visibility: 10 mile(s):0
Sky conditions: partly cloudy
Temperature: 90.0 F (32.2 C)
Dew Point: 62.1 F (16.7 C)
Relative Humidity: 39%
Pressure (altimeter): 29.89 in. Hg (1012 hPa)
Pressure tendency: 0.01 inches (0.3 hPa) lower than three hours ago
ob: KBWI 021754Z VRB05KT 10SM SCT050 SCT075 32/17 A2989 RMK AO2 SLP119 T03220167 10322 20244 58003
cycle: 18

Station Type Date Time Source
KBWI TAF 2020/07/02 18:36 UTC NOAA

TAF
AMD KBWI 021733Z 0218/0324 02008KT P6SM SCT060
FM022200 34004KT P6SM FEW060
FM030000 30004KT P6SM FEW250
FM031400 32006KT P6SM FEW250

Example: see airport list